To NAV CANADA Home Page Login to a new session Search on AWWS site Feedback and Comments Disclaimer Vers la page française équivalente Tips FAQ What's new on the site To the Forecasts and Observations / NOTAM section To "File a Flight Plan" website Publications and other links Update of the User's profile FIC Telephone Numbers My Weather Data Folder Route Weather Data Regional Weather Data Local Weather Data To the Forecasts and Observations / NOTAM section
Request Generated 05/01/2016 at 23:13:18 UTC . Weather information available at that time is displayed.

METAR/TAF

STONY RAPIDS/SK    (show WxCam)

METAR CYSF 012300Z AUTO 26012G17KT 9SM CLR 18/M00 A2996 RMK SLP157
DENSITY ALT 1300FT=
SPECI CYSF 012225Z AUTO 22013KT 200V280 9SM CLR 18/M01 A2996 RMK
SLP158 DENSITY ALT 1200FT=
METAR CYSF 012200Z AUTO 26003KT 190V300 9SM CLR 18/M01 A2997 RMK
SLP161 DENSITY ALT 1200FT=
METAR CYSF 012100Z AUTO 30006KT 240V330 9SM SCT200 SCT220 17/M01
A2998 RMK SLP164 DENSITY ALT 1100FT=

TAF CYSF 011738Z 0118/0206 VRB03KT P6SM FEW090
RMK FCST BASED ON AUTO OBS. NXT FCST BY 020000Z=
Your time UTC time
Weather data provided by Environment Canada and NAV CANADA